Time;durP1;ratioP1;P1;durP2;ratioP2;P2;SDS_P1;SDS_P2;PMS_P1;PMS_P2;Temp;Humidity;BMP_temperature;BMP_pressure;BME280_temperature;BME280_humidity;BME280_pressure;Samples;Min_cycle;Max_cycle;Signal;HPM_P1;HPM_P2
2023/05/20 00:00:51;;;;;;;19.25;6.20;;;9.90;99.90;;;;;;5110713;28;20043;-29
2023/05/20 00:03:21;;;;;;;12.85;5.95;;;9.80;99.90;;;;;;5112472;28;20486;-27
2023/05/20 00:05:47;;;;;;;17.38;5.43;;;9.90;99.90;;;;;;5103299;28;20055;-29
2023/05/20 00:08:14;;;;;;;16.30;6.50;;;9.90;99.90;;;;;;5086961;28;20395;-29
2023/05/20 00:10:40;;;;;;;20.00;6.20;;;9.90;99.90;;;;;;5102464;28;20035;-29
2023/05/20 00:13:06;;;;;;;19.33;5.72;;;9.80;99.90;;;;;;5102696;28;20043;-30
2023/05/20 00:15:32;;;;;;;17.23;6.15;;;9.90;99.90;;;;;;5113835;28;20047;-29
2023/05/20 00:18:00;;;;;;;19.77;5.88;;;9.90;99.90;;;;;;5112695;28;20068;-29
2023/05/20 00:20:25;;;;;;;15.15;6.88;;;9.80;99.90;;;;;;5113364;28;20047;-29
2023/05/20 00:22:51;;;;;;;14.02;5.65;;;9.80;99.90;;;;;;5110633;28;20051;-29
2023/05/20 00:25:17;;;;;;;16.27;5.68;;;9.80;99.90;;;;;;5109730;28;20039;-24
2023/05/20 00:27:43;;;;;;;20.98;7.00;;;9.80;99.90;;;;;;5095233;28;20108;-27
2023/05/20 00:30:09;;;;;;;16.92;6.55;;;9.80;99.90;;;;;;5109177;28;20088;-30
2023/05/20 00:32:35;;;;;;;19.95;6.47;;;9.70;99.90;;;;;;5092529;28;20136;-27
2023/05/20 00:35:02;;;;;;;14.82;6.70;;;9.70;99.90;;;;;;5092962;28;20181;-28
2023/05/20 00:37:27;;;;;;;20.58;6.43;;;9.70;99.90;;;;;;5112397;28;20044;-29
2023/05/20 00:39:53;;;;;;;17.08;5.85;;;9.60;99.90;;;;;;5113507;28;20036;-29
2023/05/20 00:42:20;;;;;;;15.25;6.65;;;9.70;99.90;;;;;;5099766;28;20101;-29
2023/05/20 00:44:46;;;;;;;14.80;5.75;;;9.70;99.90;;;;;;5113961;28;20047;-28
2023/05/20 00:47:12;;;;;;;16.30;6.40;;;9.60;99.90;;;;;;5103811;28;20392;-29
2023/05/20 00:49:38;;;;;;;15.70;6.18;;;9.60;99.90;;;;;;5094412;28;20039;-29
2023/05/20 00:52:05;;;;;;;15.95;6.57;;;9.50;99.90;;;;;;5094362;28;20043;-29
2023/05/20 00:54:31;;;;;;;18.15;7.13;;;9.50;99.90;;;;;;5092620;28;20040;-28
2023/05/20 00:56:58;;;;;;;15.95;6.75;;;9.40;99.90;;;;;;5093749;28;20044;-28
2023/05/20 00:59:25;;;;;;;20.85;6.53;;;9.40;99.90;;;;;;5103971;28;20119;-29
2023/05/20 01:01:51;;;;;;;16.95;6.38;;;9.40;99.90;;;;;;5079476;28;20584;-29
2023/05/20 01:04:17;;;;;;;15.35;5.78;;;9.40;99.90;;;;;;5113134;28;20040;-29
2023/05/20 01:06:45;;;;;;;18.10;6.40;;;9.40;99.90;;;;;;5111831;28;20367;-30
2023/05/20 01:09:12;;;;;;;15.05;6.22;;;9.40;99.90;;;;;;5105643;28;20036;-29
2023/05/20 01:11:49;;;;;;;16.38;6.32;;;9.40;99.90;;;;;;5113240;28;20093;-28
2023/05/20 01:14:17;;;;;;;16.50;6.70;;;9.40;99.90;;;;;;5105720;28;20055;-29
2023/05/20 01:16:47;;;;;;;15.18;6.38;;;9.40;99.90;;;;;;5109396;28;20075;-29
2023/05/20 01:19:34;;;;;;;15.30;5.95;;;9.40;99.90;;;;;;5104718;28;20039;-29
2023/05/20 01:22:04;;;;;;;15.05;6.72;;;9.50;99.90;;;;;;5113950;28;20078;-29
2023/05/20 01:24:30;;;;;;;13.05;5.72;;;9.50;99.90;;;;;;5109227;28;20108;-28
2023/05/20 01:26:57;;;;;;;11.90;5.53;;;9.50;99.90;;;;;;5098782;28;20550;-28
2023/05/20 01:29:23;;;;;;;12.45;5.70;;;9.50;99.90;;;;;;5102859;28;20494;-29
2023/05/20 01:31:52;;;;;;;16.88;6.28;;;9.50;99.90;;;;;;5103769;28;20515;-29
2023/05/20 01:34:18;;;;;;;15.55;5.57;;;9.50;99.90;;;;;;5105029;28;20126;-29
2023/05/20 01:36:45;;;;;;;14.25;6.57;;;9.50;99.90;;;;;;5111696;28;20114;-28
2023/05/20 01:39:12;;;;;;;16.33;6.10;;;9.60;99.90;;;;;;5106045;28;20052;-29
2023/05/20 01:41:40;;;;;;;17.20;5.65;;;9.50;99.90;;;;;;5106327;28;20511;-29
2023/05/20 01:44:06;;;;;;;10.35;6.55;;;9.50;99.90;;;;;;5106547;28;20070;-29
2023/05/20 01:46:33;;;;;;;11.90;5.72;;;9.50;99.90;;;;;;5113615;28;20486;-30
2023/05/20 01:48:59;;;;;;;13.27;6.07;;;9.50;99.90;;;;;;5093420;28;20040;-29
2023/05/20 01:51:25;;;;;;;12.80;5.78;;;9.40;99.90;;;;;;5105481;28;20093;-28
2023/05/20 01:53:50;;;;;;;13.27;5.20;;;9.40;99.90;;;;;;5114673;28;20540;-28
2023/05/20 01:56:16;;;;;;;11.30;5.25;;;9.40;99.90;;;;;;5117167;27;20108;-29
2023/05/20 01:58:42;;;;;;;12.27;5.88;;;9.40;99.90;;;;;;5116723;28;20086;-29
2023/05/20 02:01:07;;;;;;;12.75;5.35;;;9.40;99.90;;;;;;5116040;28;20047;-29
2023/05/20 02:03:33;;;;;;;16.25;5.55;;;9.40;99.90;;;;;;5117536;28;20051;-29
2023/05/20 02:05:59;;;;;;;15.38;6.05;;;9.30;99.90;;;;;;5116294;28;20050;-28
2023/05/20 02:08:25;;;;;;;12.10;6.25;;;9.30;99.90;;;;;;5116910;28;20088;-30
2023/05/20 02:10:50;;;;;;;12.48;4.95;;;9.30;99.90;;;;;;5117017;28;20047;-28
2023/05/20 02:13:16;;;;;;;11.30;5.68;;;9.30;99.90;;;;;;5100764;28;20055;-29
2023/05/20 02:15:42;;;;;;;14.98;5.70;;;9.20;99.90;;;;;;5102352;28;20059;-29
2023/05/20 02:18:08;;;;;;;12.65;6.45;;;9.20;99.90;;;;;;5110551;28;20039;-29
2023/05/20 02:20:37;;;;;;;12.88;5.20;;;9.20;99.90;;;;;;5114960;28;20039;-29
2023/05/20 02:23:07;;;;;;;13.05;5.80;;;9.20;99.90;;;;;;5116254;28;20048;-29
2023/05/20 02:25:33;;;;;;;7.60;5.30;;;9.10;99.90;;;;;;5106057;28;20072;-29
2023/05/20 02:27:59;;;;;;;8.43;5.22;;;9.10;99.90;;;;;;5094378;28;20083;-29
2023/05/20 02:30:26;;;;;;;14.20;5.43;;;9.10;99.90;;;;;;5108130;28;20078;-28
2023/05/20 02:32:52;;;;;;;9.23;5.22;;;9.10;99.90;;;;;;5115605;28;20566;-29
2023/05/20 02:35:17;;;;;;;12.25;5.88;;;9.20;99.90;;;;;;5113529;28;20122;-28
2023/05/20 02:37:44;;;;;;;11.43;6.00;;;9.20;99.90;;;;;;5108403;28;20048;-29
2023/05/20 02:40:10;;;;;;;13.15;4.70;;;9.10;99.90;;;;;;5116071;28;20138;-29
2023/05/20 02:42:36;;;;;;;13.90;5.57;;;9.10;99.90;;;;;;5114496;28;20047;-29
2023/05/20 02:45:02;;;;;;;13.50;5.65;;;9.10;99.90;;;;;;5104840;28;20097;-29
2023/05/20 02:47:28;;;;;;;10.05;5.57;;;9.10;99.90;;;;;;5116678;28;20104;-29
2023/05/20 02:49:53;;;;;;;12.68;4.70;;;9.10;99.90;;;;;;5104764;28;20076;-29
2023/05/20 02:52:19;;;;;;;11.25;5.15;;;9.10;99.90;;;;;;5095350;28;20050;-29
2023/05/20 02:54:45;;;;;;;11.15;4.45;;;9.00;99.90;;;;;;5095204;28;20075;-29
2023/05/20 02:57:11;;;;;;;9.10;4.80;;;9.00;99.90;;;;;;5077821;28;20394;-29
2023/05/20 02:59:37;;;;;;;10.15;4.55;;;9.00;99.90;;;;;;5109181;28;20048;-29
2023/05/20 03:02:03;;;;;;;12.98;5.10;;;9.00;99.90;;;;;;5104806;27;20428;-30
2023/05/20 03:04:30;;;;;;;7.28;4.55;;;9.10;99.90;;;;;;5095747;28;20044;-29
2023/05/20 03:06:56;;;;;;;10.68;4.15;;;9.10;99.90;;;;;;5094881;28;20102;-29
2023/05/20 03:09:23;;;;;;;7.90;4.07;;;9.10;99.90;;;;;;5095526;28;20525;-29
2023/05/20 03:11:49;;;;;;;6.40;4.10;;;9.10;99.90;;;;;;5095441;28;20048;-28
2023/05/20 03:14:15;;;;;;;10.95;5.30;;;9.10;99.90;;;;;;5095549;28;20060;-28
2023/05/20 03:16:41;;;;;;;8.82;4.70;;;9.00;99.90;;;;;;5108745;28;20481;-29
2023/05/20 03:19:07;;;;;;;10.32;4.10;;;9.10;99.90;;;;;;5112591;27;20047;-28
2023/05/20 03:21:33;;;;;;;8.88;4.30;;;9.00;99.90;;;;;;5114994;28;20082;-29
2023/05/20 03:23:58;;;;;;;7.70;4.22;;;9.00;99.90;;;;;;5115193;27;20052;-29
2023/05/20 03:26:24;;;;;;;8.10;4.47;;;9.00;99.90;;;;;;5115874;28;20044;-29
2023/05/20 03:28:50;;;;;;;8.63;3.97;;;9.10;99.90;;;;;;5111634;28;20044;-28
2023/05/20 03:31:16;;;;;;;6.47;3.47;;;9.10;99.90;;;;;;5091836;28;20043;-29
2023/05/20 03:33:42;;;;;;;9.77;4.70;;;9.10;99.90;;;;;;5112951;28;20517;-29
2023/05/20 03:36:07;;;;;;;9.95;3.95;;;9.10;99.90;;;;;;5106547;28;20044;-29
2023/05/20 03:38:33;;;;;;;6.82;3.38;;;9.20;97.80;;;;;;5109521;28;20494;-27
2023/05/20 03:40:59;;;;;;;6.60;3.20;;;9.10;92.80;;;;;;5109728;28;20131;-29
2023/05/20 03:43:25;;;;;;;6.22;2.63;;;9.00;75.20;;;;;;5112807;28;20063;-29
2023/05/20 03:45:51;;;;;;;8.13;3.22;;;9.00;69.90;;;;;;5115186;28;20052;-30
2023/05/20 03:48:17;;;;;;;7.88;3.72;;;9.00;47.00;;;;;;5114425;28;20051;-29
2023/05/20 03:50:42;;;;;;;8.25;2.92;;;9.00;76.70;;;;;;5109199;28;20040;-29
2023/05/20 03:53:08;;;;;;;6.10;3.05;;;9.00;45.00;;;;;;5113420;27;20402;-28
2023/05/20 03:55:34;;;;;;;7.13;3.67;;;9.00;46.40;;;;;;5102242;28;20469;-29
2023/05/20 03:58:00;;;;;;;10.60;3.40;;;9.00;25.20;;;;;;5115247;28;20048;-28
2023/05/20 04:00:26;;;;;;;5.72;2.70;;;9.00;24.80;;;;;;5100302;28;20052;-29
2023/05/20 04:02:52;;;;;;;6.18;2.90;;;9.00;17.80;;;;;;5094719;28;20124;-29
2023/05/20 04:05:18;;;;;;;7.15;3.00;;;9.00;2.70;;;;;;5094422;28;20567;-29
2023/05/20 04:07:44;;;;;;;5.85;2.83;;;9.00;8.90;;;;;;5109559;28;20051;-29
2023/05/20 04:10:10;;;;;;;10.88;2.60;;;9.00;1.00;;;;;;5079418;28;20083;-28
2023/05/20 04:12:37;;;;;;;5.60;2.63;;;9.10;4.50;;;;;;5113700;28;20047;-30
2023/05/20 04:15:03;;;;;;;7.63;3.33;;;9.20;1.00;;;;;;5115190;28;20047;-29
2023/05/20 04:17:29;;;;;;;4.95;2.00;;;9.30;1.00;;;;;;5114469;28;20039;-29
2023/05/20 04:19:56;;;;;;;6.07;2.50;;;9.30;1.00;;;;;;5113702;28;20483;-29
2023/05/20 04:22:22;;;;;;;8.15;3.33;;;9.40;1.00;;;;;;5114307;28;20095;-29
2023/05/20 04:24:48;;;;;;;6.22;2.28;;;9.50;1.00;;;;;;5114430;27;20152;-29
2023/05/20 04:27:15;;;;;;;3.78;2.40;;;9.60;1.00;;;;;;5113270;28;20401;-29
2023/05/20 04:29:44;;;;;;;7.60;2.67;;;9.70;1.00;;;;;;5114581;28;20126;-29
2023/05/20 04:32:17;;;;;;;5.85;2.67;;;9.70;1.00;;;;;;5114417;28;20126;-29
2023/05/20 04:34:44;;;;;;;6.47;2.22;;;9.80;1.00;;;;;;5112212;28;20054;-29
2023/05/20 04:37:10;;;;;;;5.63;2.25;;;9.90;1.00;;;;;;5113791;28;20043;-29
2023/05/20 04:39:36;;;;;;;3.92;2.13;;;10.00;1.00;;;;;;5113580;28;20039;-29
2023/05/20 04:42:02;;;;;;;6.55;2.10;;;10.10;1.00;;;;;;5111649;28;20533;-27
2023/05/20 04:44:28;;;;;;;5.95;2.35;;;10.20;1.00;;;;;;5103497;28;20055;-29
2023/05/20 04:46:56;;;;;;;5.45;2.13;;;10.30;99.90;;;;;;5113466;28;20050;-29
2023/05/20 04:49:24;;;;;;;6.53;1.58;;;10.40;99.90;;;;;;5112613;28;20051;-29
2023/05/20 04:51:51;;;;;;;5.60;1.50;;;10.40;99.90;;;;;;5104081;28;20513;-29
2023/05/20 04:54:16;;;;;;;4.53;1.90;;;10.50;99.90;;;;;;5103440;28;20123;-29
2023/05/20 04:56:43;;;;;;;6.25;1.80;;;10.70;99.90;;;;;;5114688;28;20464;-29
2023/05/20 04:59:09;;;;;;;4.25;1.30;;;10.80;99.90;;;;;;5113001;28;20138;-29
2023/05/20 05:01:36;;;;;;;4.13;1.50;;;10.80;99.90;;;;;;5114814;28;20047;-30
2023/05/20 05:04:02;;;;;;;2.80;1.65;;;10.90;99.90;;;;;;5110178;28;20147;-29
2023/05/20 05:06:28;;;;;;;7.38;1.70;;;11.00;99.20;;;;;;5106559;28;20398;-29
2023/05/20 05:08:54;;;;;;;5.32;1.45;;;11.00;99.90;;;;;;5111804;28;20119;-30
2023/05/20 05:11:20;;;;;;;4.53;1.90;;;11.00;52.30;;;;;;5111728;28;20075;-29
2023/05/20 05:13:46;;;;;;;5.22;1.35;;;11.00;1.00;;;;;;5113908;28;20062;-29
2023/05/20 05:16:12;;;;;;;3.50;1.40;;;11.00;1.00;;;;;;5104230;28;20035;-30
2023/05/20 05:18:37;;;;;;;4.38;1.63;;;11.00;1.00;;;;;;5113820;28;20036;-30
2023/05/20 05:21:05;;;;;;;3.30;1.45;;;10.90;1.00;;;;;;5114913;28;20054;-29
2023/05/20 05:23:31;;;;;;;2.88;1.25;;;10.90;1.00;;;;;;5112057;28;20072;-28
2023/05/20 05:25:57;;;;;;;3.67;1.20;;;11.00;1.00;;;;;;5103405;28;20502;-29
2023/05/20 05:28:23;;;;;;;4.13;1.48;;;11.00;1.00;;;;;;5113017;28;20141;-29
2023/05/20 05:30:49;;;;;;;3.70;1.50;;;11.10;1.00;;;;;;5115951;28;20100;-29
2023/05/20 05:33:15;;;;;;;3.65;1.38;;;11.20;1.00;;;;;;5114976;27;20147;-30
2023/05/20 05:35:42;;;;;;;3.13;1.40;;;11.40;1.00;;;;;;5114774;28;20066;-29
2023/05/20 05:38:08;;;;;;;3.50;1.33;;;12.00;1.00;;;;;;5109486;28;20051;-29
2023/05/20 05:40:34;;;;;;;5.32;1.40;;;13.00;99.90;;;;;;5116936;28;20047;-28
2023/05/20 05:43:00;;;;;;;1.73;1.20;;;14.30;10.70;;;;;;5116777;28;20127;-29
2023/05/20 05:45:25;;;;;;;2.75;1.40;;;15.10;1.00;;;;;;5116712;28;20118;-28
2023/05/20 05:47:51;;;;;;;4.43;1.45;;;15.70;1.00;;;;;;5107886;28;20457;-29
2023/05/20 05:50:17;;;;;;;4.30;1.10;;;16.10;99.90;;;;;;5117134;28;20101;-29
2023/05/20 05:52:42;;;;;;;5.00;1.30;;;16.40;99.90;;;;;;5108382;28;20082;-29
2023/05/20 05:55:09;;;;;;;3.42;1.00;;;16.50;84.00;;;;;;5102969;28;20441;-29
2023/05/20 05:57:35;;;;;;;2.70;1.20;;;16.70;1.00;;;;;;5100250;28;20052;-31
2023/05/20 06:00:01;;;;;;;4.25;1.08;;;16.60;99.90;;;;;;5113363;28;20044;-30
2023/05/20 06:02:26;;;;;;;3.35;1.23;;;16.60;99.90;;;;;;5096840;28;20090;-29
2023/05/20 06:04:52;;;;;;;4.68;1.10;;;16.70;99.90;;;;;;5096765;28;20048;-29
2023/05/20 06:07:18;;;;;;;2.08;0.90;;;16.70;1.00;;;;;;5115150;28;20472;-30
2023/05/20 06:09:44;;;;;;;2.58;1.00;;;17.00;43.90;;;;;;5109946;28;20616;-29
2023/05/20 06:12:10;;;;;;;3.70;0.85;;;17.30;1.00;;;;;;5109419;28;20126;-29
2023/05/20 06:14:36;;;;;;;4.70;1.30;;;17.40;1.00;;;;;;5117094;28;20044;-30
2023/05/20 06:17:02;;;;;;;6.38;1.42;;;17.30;99.90;;;;;;5096465;28;20116;-30
2023/05/20 06:19:28;;;;;;;3.03;1.20;;;17.00;99.90;;;;;;5095623;28;20621;-29
2023/05/20 06:21:55;;;;;;;5.22;0.95;;;16.90;99.90;;;;;;5095399;28;20119;-29
2023/05/20 06:24:21;;;;;;;3.80;0.90;;;16.60;99.90;;;;;;5114456;28;20046;-29
2023/05/20 06:26:48;;;;;;;2.55;0.77;;;16.40;99.90;;;;;;5114013;28;20046;-29
2023/05/20 06:29:14;;;;;;;3.35;1.08;;;16.40;99.90;;;;;;5108547;28;20044;-30
2023/05/20 06:31:40;;;;;;;4.45;1.08;;;16.50;99.90;;;;;;5093887;28;20046;-29
2023/05/20 06:34:06;;;;;;;2.83;1.00;;;16.70;99.90;;;;;;5096890;28;20450;-29
2023/05/20 06:36:31;;;;;;;4.90;0.90;;;16.90;99.90;;;;;;5096353;28;20543;-29
2023/05/20 06:38:57;;;;;;;2.28;0.98;;;16.90;99.90;;;;;;5107853;28;20439;-27
2023/05/20 06:41:23;;;;;;;5.43;1.25;;;16.90;99.90;;;;;;5105900;28;20036;-30
2023/05/20 06:43:48;;;;;;;3.78;1.02;;;17.30;99.90;;;;;;5108141;28;20051;-30
2023/05/20 06:46:14;;;;;;;2.42;0.77;;;17.30;70.80;;;;;;5099816;28;20080;-29
2023/05/20 06:48:40;;;;;;;4.63;1.10;;;17.30;1.00;;;;;;5101394;28;20081;-29
2023/05/20 06:51:10;;;;;;;3.05;1.10;;;17.70;55.60;;;;;;5101161;28;20059;-29
2023/05/20 06:53:35;;;;;;;6.40;1.25;;;17.90;1.00;;;;;;5103714;28;20478;-30
2023/05/20 06:56:01;;;;;;;2.83;1.00;;;18.00;1.00;;;;;;5096186;28;20040;-30
2023/05/20 06:58:28;;;;;;;4.88;1.08;;;18.30;1.00;;;;;;5115209;28;20054;-29
2023/05/20 07:00:54;;;;;;;5.55;0.82;;;18.50;1.00;;;;;;5114996;28;20118;-29
2023/05/20 07:03:19;;;;;;;2.40;0.93;;;18.50;1.00;;;;;;5100981;28;20071;-29
2023/05/20 07:05:45;;;;;;;1.83;1.23;;;18.20;1.00;;;;;;5094673;28;20479;-29
2023/05/20 07:08:11;;;;;;;4.88;1.00;;;18.10;1.00;;;;;;5096150;28;20066;-29
2023/05/20 07:10:37;;;;;;;3.10;1.00;;;18.30;1.00;;;;;;5094272;28;20044;-29
2023/05/20 07:13:03;;;;;;;3.30;0.90;;;18.60;1.00;;;;;;5113203;28;20100;-27
2023/05/20 07:15:28;;;;;;;3.90;1.13;;;18.50;1.00;;;;;;5115802;28;20148;-29
2023/05/20 07:17:54;;;;;;;3.42;1.02;;;18.30;1.00;;;;;;5116525;28;20043;-29
2023/05/20 07:20:20;;;;;;;5.00;1.00;;;18.30;1.00;;;;;;5115851;28;20430;-29
2023/05/20 07:22:47;;;;;;;2.38;1.10;;;18.50;1.00;;;;;;5115763;28;20039;-31
2023/05/20 07:25:13;;;;;;;2.60;1.00;;;18.90;1.00;;;;;;5115457;28;20051;-31
2023/05/20 07:27:39;;;;;;;3.42;1.00;;;18.80;1.00;;;;;;5097687;28;20122;-30
2023/05/20 07:30:05;;;;;;;2.15;1.08;;;18.90;1.00;;;;;;5114010;28;20134;-29
2023/05/20 07:32:31;;;;;;;2.47;0.80;;;19.30;1.00;;;;;;5115614;27;20055;-30
2023/05/20 07:34:57;;;;;;;2.00;0.90;;;19.40;99.90;;;;;;5115630;28;20055;-29
2023/05/20 07:37:23;;;;;;;3.22;0.98;;;19.60;99.90;;;;;;5115767;28;20048;-29
2023/05/20 07:39:48;;;;;;;2.83;0.75;;;19.60;99.90;;;;;;5099589;28;20051;-29
2023/05/20 07:42:14;;;;;;;5.53;0.90;;;19.50;99.90;;;;;;5094781;28;20048;-30
2023/05/20 07:44:40;;;;;;;3.22;0.90;;;19.50;99.90;;;;;;5093461;28;20056;-29
2023/05/20 07:47:05;;;;;;;2.60;1.10;;;19.70;99.90;;;;;;5095042;28;20052;-27
2023/05/20 07:49:31;;;;;;;5.45;1.65;;;19.80;99.90;;;;;;5114039;28;20040;-30
2023/05/20 07:51:57;;;;;;;3.78;1.35;;;19.90;99.90;;;;;;5114020;28;20380;-29
2023/05/20 07:54:23;;;;;;;2.97;1.08;;;19.80;99.90;;;;;;5115180;28;20039;-29
2023/05/20 07:56:48;;;;;;;2.47;0.90;;;19.60;99.90;;;;;;5115048;28;20130;-29
2023/05/20 07:59:14;;;;;;;2.92;1.08;;;19.50;99.90;;;;;;5115010;28;20042;-30
2023/05/20 08:01:41;;;;;;;3.47;1.23;;;19.50;99.90;;;;;;5113739;28;20040;-29
2023/05/20 08:04:07;;;;;;;1.90;0.80;;;19.60;99.90;;;;;;5113564;28;20106;-28
2023/05/20 08:06:34;;;;;;;4.20;1.00;;;19.30;99.90;;;;;;5114142;28;20055;-29
2023/05/20 08:09:00;;;;;;;1.70;1.00;;;19.40;99.90;;;;;;5114806;28;20083;-29
2023/05/20 08:11:26;;;;;;;7.15;2.08;;;19.40;99.90;;;;;;5115381;28;20439;-29
2023/05/20 08:13:52;;;;;;;7.45;1.90;;;19.70;99.90;;;;;;5114452;28;20506;-30
2023/05/20 08:16:20;;;;;;;12.18;1.95;;;20.00;99.90;;;;;;5112535;28;20058;-25
2023/05/20 08:18:46;;;;;;;3.42;1.63;;;20.10;99.90;;;;;;5094334;28;20043;-30
2023/05/20 08:21:12;;;;;;;2.30;1.05;;;20.10;99.90;;;;;;5094321;28;20048;-30
2023/05/20 08:23:38;;;;;;;2.47;0.90;;;20.40;99.90;;;;;;5094023;28;20495;-30
2023/05/20 08:26:04;;;;;;;2.70;0.70;;;20.40;99.90;;;;;;5093067;28;20178;-30
2023/05/20 08:28:30;;;;;;;5.05;1.52;;;20.40;99.90;;;;;;5088316;28;20040;-30
2023/05/20 08:30:59;;;;;;;4.55;0.85;;;20.60;99.90;;;;;;5094109;28;20079;-29
2023/05/20 08:33:24;;;;;;;1.83;1.10;;;20.50;99.90;;;;;;5093523;28;20141;-31
2023/05/20 08:35:50;;;;;;;4.10;0.80;;;20.50;99.90;;;;;;5076055;28;20090;-29
2023/05/20 08:38:16;;;;;;;4.97;1.33;;;20.50;99.90;;;;;;5100759;28;20044;-29
2023/05/20 08:40:43;;;;;;;4.13;1.50;;;20.30;99.90;;;;;;5100299;28;20101;-30
2023/05/20 08:43:08;;;;;;;2.25;0.90;;;20.20;99.90;;;;;;5081783;28;20056;-30
2023/05/20 08:45:37;;;;;;;2.33;0.90;;;20.40;99.90;;;;;;5094414;28;20471;-30
2023/05/20 08:48:06;;;;;;;1.65;1.02;;;20.40;99.90;;;;;;5110790;28;20062;-29
2023/05/20 08:50:32;;;;;;;3.22;1.17;;;20.10;99.90;;;;;;5109621;28;20517;-29
2023/05/20 08:53:08;;;;;;;3.65;0.93;;;20.00;99.90;;;;;;5099225;28;20127;-32
2023/05/20 08:55:42;;;;;;;5.07;1.52;;;20.10;99.90;;;;;;5091385;28;20113;-30
2023/05/20 08:58:09;;;;;;;4.03;1.40;;;20.30;99.90;;;;;;5111152;28;20048;-30
2023/05/20 09:00:36;;;;;;;2.60;1.02;;;20.70;99.90;;;;;;5114301;28;20047;-30
2023/05/20 09:03:03;;;;;;;3.28;0.90;;;21.20;99.90;;;;;;5090103;28;20044;-29
2023/05/20 09:05:28;;;;;;;3.40;1.02;;;21.60;99.90;;;;;;5105806;28;20138;-29
2023/05/20 09:08:07;;;;;;;3.03;0.90;;;21.70;99.90;;;;;;5095990;28;20126;-30
2023/05/20 09:10:34;;;;;;;2.17;0.90;;;21.60;99.90;;;;;;5093665;28;20048;-29
2023/05/20 09:13:01;;;;;;;3.30;0.88;;;21.40;99.90;;;;;;5101928;28;20043;-30
2023/05/20 09:15:27;;;;;;;2.58;1.08;;;21.40;99.90;;;;;;5109592;28;20052;-30
2023/05/20 09:17:53;;;;;;;4.78;0.90;;;21.60;99.90;;;;;;5093488;28;20376;-30
2023/05/20 09:20:21;;;;;;;2.55;0.90;;;21.80;99.90;;;;;;5094285;28;20043;-30
2023/05/20 09:22:52;;;;;;;1.17;0.70;;;21.90;99.90;;;;;;5075827;28;20048;-29
2023/05/20 09:25:24;;;;;;;4.50;1.13;;;21.90;99.90;;;;;;5095705;28;20052;-30
2023/05/20 09:27:50;;;;;;;2.03;0.82;;;21.60;99.90;;;;;;5112860;28;20052;-29
2023/05/20 09:30:20;;;;;;;3.58;1.10;;;21.60;99.90;;;;;;5113733;28;20040;-29
2023/05/20 09:32:55;;;;;;;5.82;1.17;;;21.30;99.90;;;;;;5113515;28;20487;-29
2023/05/20 09:35:22;;;;;;;6.20;1.10;;;21.40;99.90;;;;;;5114316;28;20055;-30
2023/05/20 09:37:52;;;;;;;3.65;1.20;;;21.10;99.90;;;;;;5112762;28;20114;-29
2023/05/20 09:40:29;;;;;;;4.40;1.00;;;21.30;99.90;;;;;;5113759;28;20046;-29
2023/05/20 09:43:07;;;;;;;2.78;0.90;;;21.20;99.90;;;;;;5112879;28;20398;-29
2023/05/20 09:45:33;;;;;;;4.43;0.90;;;21.40;99.90;;;;;;5096675;28;20051;-29
2023/05/20 09:48:01;;;;;;;6.85;1.20;;;21.50;99.90;;;;;;5110140;28;20051;-30
2023/05/20 09:50:28;;;;;;;5.28;1.30;;;21.60;99.90;;;;;;5113550;28;20101;-29
2023/05/20 09:52:55;;;;;;;6.45;1.67;;;21.90;99.90;;;;;;5114239;28;20094;-29
2023/05/20 09:55:23;;;;;;;3.10;1.08;;;21.70;99.90;;;;;;5114240;28;20055;-29
2023/05/20 09:57:49;;;;;;;4.63;1.30;;;22.00;99.90;;;;;;5108956;28;20108;-29
2023/05/20 10:00:18;;;;;;;2.83;1.20;;;22.40;99.90;;;;;;5113491;28;20390;-30
2023/05/20 10:02:46;;;;;;;5.45;2.00;;;22.40;99.90;;;;;;5113530;28;20050;-29
2023/05/20 10:05:36;;;;;;;4.65;1.15;;;22.70;99.90;;;;;;5113509;28;20138;-30
2023/05/20 10:08:08;;;;;;;4.10;2.05;;;22.90;99.90;;;;;;5104814;28;20403;-25
2023/05/20 10:11:05;;;;;;;7.45;1.50;;;23.00;99.90;;;;;;5093708;28;20059;-29
2023/05/20 10:13:49;;;;;;;2.83;1.02;;;23.10;99.90;;;;;;5092735;28;20093;-30
2023/05/20 10:16:24;;;;;;;5.43;1.17;;;23.00;99.90;;;;;;5095129;28;20134;-30
2023/05/20 10:19:18;;;;;;;4.47;1.30;;;22.90;99.90;;;;;;5086009;28;20092;-30
2023/05/20 10:21:44;;;;;;;4.25;1.33;;;22.70;99.90;;;;;;5099065;28;20052;-31
2023/05/20 10:24:10;;;;;;;6.43;2.90;;;22.40;99.90;;;;;;5098702;28;20062;-30
2023/05/20 10:26:38;;;;;;;6.47;1.65;;;22.10;99.90;;;;;;5099314;28;20490;-29
2023/05/20 10:29:17;;;;;;;4.07;1.60;;;22.20;99.90;;;;;;5110107;28;20036;-30
2023/05/20 10:31:52;;;;;;;3.67;1.58;;;22.30;99.90;;;;;;5078899;28;20133;-31
2023/05/20 10:34:20;;;;;;;3.30;1.20;;;22.00;99.90;;;;;;5104956;28;20100;-29
2023/05/20 10:37:05;;;;;;;4.72;1.25;;;22.10;99.90;;;;;;5115698;28;20089;-30
2023/05/20 10:39:33;;;;;;;3.88;1.38;;;22.20;99.90;;;;;;5108918;28;20052;-30
2023/05/20 10:42:06;;;;;;;4.50;1.55;;;22.00;99.90;;;;;;5096495;28;20091;-29
2023/05/20 10:44:46;;;;;;;6.07;2.13;;;22.40;99.90;;;;;;5094641;28;20064;-30
2023/05/20 10:47:13;;;;;;;7.40;1.95;;;22.30;99.90;;;;;;5078237;28;20058;-29
2023/05/20 10:49:44;;;;;;;5.38;1.77;;;22.30;99.90;;;;;;5079776;28;20043;-29
2023/05/20 10:52:10;;;;;;;6.63;1.55;;;22.40;99.90;;;;;;5111067;28;20058;-30
2023/05/20 10:54:42;;;;;;;4.35;1.73;;;22.20;99.90;;;;;;5098368;28;20051;-29
2023/05/20 10:57:08;;;;;;;5.93;1.23;;;22.10;99.90;;;;;;5115100;28;20051;-29
2023/05/20 10:59:36;;;;;;;3.42;1.30;;;21.80;99.90;;;;;;5098869;28;20036;-30
2023/05/20 11:02:02;;;;;;;11.60;2.78;;;21.90;99.90;;;;;;5078367;28;20074;-30
2023/05/20 11:04:30;;;;;;;7.32;2.20;;;22.30;99.90;;;;;;5094309;28;20122;-30
2023/05/20 11:06:57;;;;;;;4.93;1.30;;;22.60;99.90;;;;;;5077935;28;20055;-30
2023/05/20 11:09:23;;;;;;;6.40;1.88;;;22.40;99.90;;;;;;5101031;28;20504;-30
2023/05/20 11:11:51;;;;;;;6.68;2.28;;;22.40;99.90;;;;;;5094440;28;20043;-30
2023/05/20 11:14:18;;;;;;;7.88;1.48;;;22.20;99.90;;;;;;5114840;28;20044;-30
2023/05/20 11:16:45;;;;;;;6.25;1.85;;;21.80;99.90;;;;;;5104882;28;20040;-30
2023/05/20 11:19:20;;;;;;;4.95;1.75;;;21.80;99.90;;;;;;5096350;28;20496;-30
2023/05/20 11:21:47;;;;;;;6.47;2.28;;;21.70;99.90;;;;;;5077980;28;20376;-32
2023/05/20 11:24:14;;;;;;;5.78;1.88;;;22.20;99.90;;;;;;5094778;28;20055;-30
2023/05/20 11:26:40;;;;;;;5.63;1.48;;;22.40;99.90;;;;;;5076338;28;20395;-29
2023/05/20 11:29:06;;;;;;;7.00;1.80;;;22.80;99.90;;;;;;5105476;28;20044;-29
2023/05/20 11:31:32;;;;;;;4.55;1.55;;;22.60;99.90;;;;;;5096661;28;20055;-29
2023/05/20 11:34:02;;;;;;;3.92;1.50;;;22.70;99.90;;;;;;5102852;28;20059;-30
2023/05/20 11:36:29;;;;;;;7.85;1.77;;;22.70;99.90;;;;;;5096198;28;20039;-30
2023/05/20 11:38:57;;;;;;;9.48;2.08;;;22.60;99.90;;;;;;5099758;28;20038;-28
2023/05/20 11:41:27;;;;;;;6.18;2.00;;;22.30;99.90;;;;;;5102222;28;20047;-30
2023/05/20 11:44:00;;;;;;;6.13;2.08;;;22.60;99.90;;;;;;5109541;28;20091;-29
2023/05/20 11:46:26;;;;;;;6.95;2.75;;;22.50;99.90;;;;;;5109943;28;20057;-30
2023/05/20 11:48:53;;;;;;;5.00;1.90;;;22.30;99.90;;;;;;5110208;28;20036;-30
2023/05/20 11:51:29;;;;;;;5.28;2.22;;;22.70;99.90;;;;;;5094868;28;20046;-31
2023/05/20 11:54:06;;;;;;;5.82;2.05;;;22.60;99.90;;;;;;5093350;28;20511;-30
2023/05/20 11:56:40;;;;;;;5.47;2.33;;;22.70;99.90;;;;;;5104655;28;20547;-30
2023/05/20 11:59:08;;;;;;;3.75;1.77;;;22.80;99.90;;;;;;5080038;28;20497;-30
2023/05/20 12:01:36;;;;;;;7.57;1.80;;;22.90;99.90;;;;;;5113667;28;20071;-30
2023/05/20 12:04:09;;;;;;;7.13;2.13;;;22.70;99.90;;;;;;5114876;28;20634;-29
2023/05/20 12:06:38;;;;;;;5.78;1.98;;;22.80;99.90;;;;;;5113856;28;20040;-31
2023/05/20 12:09:06;;;;;;;12.90;2.63;;;22.60;99.90;;;;;;5112192;28;20043;-30
2023/05/20 12:11:40;;;;;;;5.53;2.20;;;22.60;99.90;;;;;;5104515;28;20051;-29
2023/05/20 12:14:06;;;;;;;3.97;2.50;;;22.70;99.90;;;;;;5094535;28;20044;-29
2023/05/20 12:16:34;;;;;;;5.68;2.00;;;22.50;99.90;;;;;;5113077;28;20112;-30
2023/05/20 12:19:00;;;;;;;7.57;2.08;;;22.60;99.90;;;;;;5115283;27;20058;-30
2023/05/20 12:21:27;;;;;;;7.38;2.20;;;22.60;99.90;;;;;;5113512;28;20047;-30
2023/05/20 12:23:56;;;;;;;9.23;3.00;;;22.50;99.90;;;;;;5113960;28;20063;-30
2023/05/20 12:26:26;;;;;;;5.45;2.22;;;22.40;99.90;;;;;;5110980;28;20039;-30
2023/05/20 12:28:52;;;;;;;6.90;2.65;;;22.80;99.90;;;;;;5113457;28;20482;-30
2023/05/20 12:31:18;;;;;;;3.75;1.95;;;23.30;99.90;;;;;;5114482;28;20510;-30
2023/05/20 12:33:44;;;;;;;5.45;2.20;;;22.90;99.90;;;;;;5113243;28;20050;-30
2023/05/20 12:36:10;;;;;;;5.78;2.17;;;22.60;99.90;;;;;;5087289;28;20403;-30
2023/05/20 12:38:36;;;;;;;7.90;2.20;;;22.80;99.90;;;;;;5093314;28;20052;-30
2023/05/20 12:41:01;;;;;;;4.95;1.92;;;22.90;99.90;;;;;;5093042;28;20361;-30
2023/05/20 12:43:27;;;;;;;5.13;2.30;;;23.00;99.90;;;;;;5094172;28;20437;-30
2023/05/20 12:45:53;;;;;;;4.75;2.53;;;23.20;99.90;;;;;;5096271;28;20112;-29
2023/05/20 12:48:19;;;;;;;5.32;2.58;;;23.50;99.90;;;;;;5114208;28;20096;-30
2023/05/20 12:50:45;;;;;;;7.85;2.55;;;23.50;99.90;;;;;;5113532;28;20490;-29